createdAt,value
2022-11-27T00:02:42.815Z,91.75
2022-11-27T00:07:40.843Z,93.91
2022-11-27T00:12:38.816Z,93.28
2022-11-27T00:17:40.945Z,93.58
2022-11-27T00:22:39.009Z,93.19
2022-11-27T00:27:38.741Z,92.23
2022-11-27T00:32:38.456Z,91.84
2022-11-27T00:37:37.513Z,90.86
2022-11-27T00:42:35.536Z,89.68
2022-11-27T00:47:33.454Z,91.48
2022-11-27T00:52:32.851Z,89.91
2022-11-27T00:57:30.720Z,90.93
2022-11-27T01:02:28.664Z,89.23
2022-11-27T01:07:27.836Z,88.68
2022-11-27T01:12:27.072Z,88.39
2022-11-27T01:17:25.002Z,89.52
2022-11-27T01:22:22.814Z,90.78
2022-11-27T01:27:20.801Z,90.87
2022-11-27T01:32:20.024Z,90.72
2022-11-27T01:37:17.963Z,92.24
2022-11-27T01:42:16.046Z,93.25
2022-11-27T01:47:15.789Z,92.14
2022-11-27T01:52:18.160Z,94.12
2022-11-27T01:57:19.309Z,92.72
2022-11-27T02:02:17.189Z,93.28
2022-11-27T02:07:16.559Z,93.13
2022-11-27T02:12:17.807Z,91.99
2022-11-27T02:17:19.656Z,92.33
2022-11-27T02:22:26.464Z,93.62
2022-11-27T02:27:51.571Z,93.78
2022-11-27T02:32:53.504Z,92.87
2022-11-27T02:37:54.589Z,93.04
2022-11-27T02:42:54.895Z,92.85
2022-11-27T02:47:55.231Z,91.86
2022-11-27T02:52:56.061Z,91.82
2022-11-27T02:57:56.123Z,92.17
2022-11-27T03:02:58.328Z,92.81
2022-11-27T03:08:01.012Z,94.23
2022-11-27T03:13:00.005Z,93.92
2022-11-27T03:18:02.628Z,92.47
2022-11-27T03:23:00.731Z,91.74
2022-11-27T03:28:01.168Z,92.01
2022-11-27T03:33:00.596Z,92.14
2022-11-27T03:37:58.620Z,91.33
2022-11-27T03:42:59.848Z,91.16
2022-11-27T03:48:05.240Z,89.98
2022-11-27T03:53:09.532Z,91.28
2022-11-27T03:58:09.642Z,89.30
2022-11-27T04:03:10.401Z,90.19
2022-11-27T04:08:08.450Z,90.00
2022-11-27T04:13:06.462Z,89.67
2022-11-27T04:18:04.587Z,91.31
2022-11-27T04:23:03.781Z,92.35
2022-11-27T04:28:01.647Z,92.20
2022-11-27T04:32:59.748Z,91.51
2022-11-27T04:37:57.837Z,90.87
2022-11-27T04:42:57.164Z,89.52
2022-11-27T04:47:55.066Z,88.94
2022-11-27T04:52:53.013Z,89.37
2022-11-27T04:57:50.855Z,90.13
2022-11-27T05:02:50.143Z,89.49
2022-11-27T05:07:48.308Z,87.74
2022-11-27T05:12:46.244Z,89.57
2022-11-27T05:17:44.107Z,88.83
2022-11-27T05:22:44.516Z,88.22
2022-11-27T05:27:42.465Z,89.48
2022-11-27T05:32:40.504Z,88.91
2022-11-27T05:37:38.358Z,89.68
2022-11-27T05:42:37.584Z,89.10
2022-11-27T05:47:35.475Z,88.38
2022-11-27T05:52:33.316Z,88.57
2022-11-27T05:57:31.999Z,88.05
2022-11-27T06:02:31.305Z,87.58
2022-11-27T06:07:29.277Z,86.93
2022-11-27T06:12:27.326Z,86.97
2022-11-27T06:17:25.250Z,86.47
2022-11-27T06:22:24.569Z,86.32
2022-11-27T06:27:22.657Z,85.05
2022-11-27T06:32:21.023Z,85.72
2022-11-27T06:37:18.976Z,85.18
2022-11-27T06:42:18.444Z,85.03
2022-11-27T06:47:16.440Z,84.33
2022-11-27T06:52:14.523Z,84.75
2022-11-27T06:57:12.607Z,84.42
2022-11-27T07:02:14.760Z,83.86
2022-11-27T07:07:12.792Z,83.51
2022-11-27T07:12:10.839Z,83.95
2022-11-27T07:17:08.701Z,84.02
2022-11-27T07:22:07.916Z,84.38
2022-11-27T07:27:06.043Z,83.45
2022-11-27T07:32:03.998Z,83.36
2022-11-27T07:37:02.075Z,83.29
2022-11-27T07:42:23.190Z,83.90
2022-11-27T07:47:20.193Z,83.17
2022-11-27T07:52:18.318Z,82.67
2022-11-27T07:57:18.273Z,82.95
2022-11-27T08:02:18.614Z,82.59
2022-11-27T08:07:16.786Z,82.87
2022-11-27T08:12:14.933Z,82.30
2022-11-27T08:17:15.103Z,82.36
2022-11-27T08:22:13.545Z,81.66
2022-11-27T08:27:11.761Z,81.51
2022-11-27T08:32:12.113Z,80.99
2022-11-27T08:37:11.559Z,80.76
2022-11-27T08:42:10.831Z,81.24
2022-11-27T08:47:08.836Z,80.83
2022-11-27T08:52:06.789Z,80.35
2022-11-27T08:57:06.621Z,80.46
2022-11-27T09:02:07.409Z,80.96
2022-11-27T09:07:05.630Z,80.08
2022-11-27T09:12:04.154Z,79.94
2022-11-27T09:17:04.321Z,81.02
2022-11-27T09:22:03.168Z,79.98
2022-11-27T09:27:12.196Z,79.93
2022-11-27T09:32:13.055Z,79.31
2022-11-27T09:37:16.577Z,78.27
2022-11-27T09:42:19.539Z,79.33
2022-11-27T09:47:21.806Z,79.08
2022-11-27T09:52:24.123Z,78.83
2022-11-27T09:57:26.983Z,79.29
2022-11-27T10:02:29.060Z,78.35
2022-11-27T10:07:35.488Z,78.38
2022-11-27T10:12:41.608Z,78.41
2022-11-27T10:17:44.946Z,78.03
2022-11-27T10:22:48.487Z,78.19
2022-11-27T10:28:02.373Z,78.03
2022-11-27T10:33:04.647Z,78.89
2022-11-27T10:38:07.035Z,79.38
2022-11-27T10:43:11.514Z,78.90
2022-11-27T10:48:13.271Z,77.48
2022-11-27T10:53:15.957Z,77.23
2022-11-27T10:58:18.339Z,76.94
2022-11-27T11:03:19.211Z,76.14
2022-11-27T11:08:20.266Z,76.43
2022-11-27T11:13:22.772Z,75.88
2022-11-27T11:18:23.487Z,75.71
2022-11-27T11:23:23.313Z,76.56
2022-11-27T11:28:21.555Z,77.11
2022-11-27T11:33:21.928Z,76.97
2022-11-27T11:38:33.549Z,77.58
2022-11-27T11:43:33.885Z,77.40
2022-11-27T11:48:34.210Z,76.80
2022-11-27T11:53:37.911Z,76.36
2022-11-27T11:58:41.901Z,76.39
2022-11-27T12:03:47.222Z,75.94
2022-11-27T12:08:55.645Z,75.98
2022-11-27T12:14:01.520Z,76.36
2022-11-27T12:19:07.771Z,76.53
2022-11-27T12:24:30.250Z,76.51
2022-11-27T12:29:51.003Z,76.68
2022-11-27T12:34:58.163Z,76.32
2022-11-27T12:40:09.960Z,76.78
2022-11-27T12:45:17.098Z,76.55
2022-11-27T12:50:20.411Z,76.74
2022-11-27T12:55:22.541Z,76.58
2022-11-27T13:00:21.927Z,76.23
2022-11-27T13:05:22.889Z,77.05
2022-11-27T13:10:25.667Z,77.72
2022-11-27T13:15:26.553Z,77.21
2022-11-27T13:20:28.402Z,77.60
2022-11-27T13:25:28.014Z,77.50
2022-11-27T13:30:27.286Z,77.69
2022-11-27T13:35:29.002Z,78.08
2022-11-27T13:40:30.890Z,78.16
2022-11-27T13:45:30.032Z,78.17
2022-11-27T13:50:31.279Z,78.66
2022-11-27T13:55:32.085Z,78.61
2022-11-27T14:00:34.602Z,79.35
2022-11-27T14:05:37.139Z,79.45
2022-11-27T14:10:36.571Z,79.36
2022-11-27T14:15:36.614Z,79.13
2022-11-27T14:20:38.645Z,79.36
2022-11-27T14:25:38.469Z,79.28
2022-11-27T14:30:37.275Z,79.82
2022-11-27T14:35:35.209Z,79.96
2022-11-27T14:40:33.035Z,80.27
2022-11-27T14:45:36.031Z,80.64
2022-11-27T14:50:40.400Z,80.48
2022-11-27T14:55:38.394Z,80.75
2022-11-27T15:00:37.959Z,80.75
2022-11-27T15:05:38.715Z,80.90
2022-11-27T15:10:40.460Z,80.91
2022-11-27T15:15:43.108Z,81.30
2022-11-27T15:20:41.837Z,80.73
2022-11-27T15:25:41.025Z,80.29
2022-11-27T15:30:46.616Z,79.98
2022-11-27T15:35:46.943Z,79.98
2022-11-27T15:40:57.283Z,79.74
2022-11-27T15:45:57.686Z,79.54
2022-11-27T15:50:55.745Z,79.25
2022-11-27T15:55:53.569Z,79.35
2022-11-27T16:00:51.386Z,79.23
2022-11-27T16:05:53.866Z,79.18
2022-11-27T16:10:51.711Z,79.29
2022-11-27T16:15:49.565Z,79.20
2022-11-27T16:20:48.044Z,79.35
2022-11-27T16:25:47.614Z,79.57
2022-11-27T16:30:45.895Z,79.26
2022-11-27T16:35:43.740Z,79.43
2022-11-27T16:40:41.956Z,79.17
2022-11-27T16:45:41.223Z,79.47
2022-11-27T16:50:40.741Z,79.23
2022-11-27T16:55:39.694Z,79.84
2022-11-27T17:00:37.773Z,80.14
2022-11-27T17:05:40.126Z,80.46
2022-11-27T17:10:38.471Z,80.42
2022-11-27T17:15:40.870Z,80.31
2022-11-27T17:20:41.646Z,80.54
2022-11-27T17:25:43.836Z,80.25
2022-11-27T17:30:42.043Z,80.33
2022-11-27T17:35:42.437Z,80.30
2022-11-27T17:40:40.763Z,80.33
2022-11-27T17:45:41.757Z,80.48
2022-11-27T17:50:40.371Z,80.39
2022-11-27T17:55:39.872Z,80.41
2022-11-27T18:00:42.647Z,80.10
2022-11-27T18:05:41.147Z,80.27
2022-11-27T18:10:40.455Z,80.13
2022-11-27T18:15:38.697Z,80.23
2022-11-27T18:20:36.846Z,80.21
2022-11-27T18:25:34.890Z,80.34
2022-11-27T18:30:39.309Z,80.20
2022-11-27T18:35:42.272Z,80.73
2022-11-27T18:40:42.271Z,81.44
2022-11-27T18:45:42.204Z,81.46
2022-11-27T18:50:40.284Z,81.33
2022-11-27T18:55:38.535Z,81.81
2022-11-27T19:00:36.912Z,81.77
2022-11-27T19:05:37.867Z,81.75
2022-11-27T19:10:35.874Z,81.54
2022-11-27T19:15:34.196Z,81.60
2022-11-27T19:20:33.535Z,81.57
2022-11-27T19:25:37.417Z,81.55
2022-11-27T19:30:36.864Z,81.36
2022-11-27T19:35:38.428Z,81.46
2022-11-27T19:40:38.959Z,81.33
2022-11-27T19:45:37.837Z,81.49
2022-11-27T19:50:41.597Z,81.64
2022-11-27T19:55:41.835Z,81.60
2022-11-27T20:00:40.279Z,81.63
2022-11-27T20:05:39.234Z,81.62
2022-11-27T20:10:37.065Z,81.86
2022-11-27T20:15:37.383Z,81.85
2022-11-27T20:20:35.917Z,81.59
2022-11-27T20:25:34.990Z,81.36
2022-11-27T20:30:34.714Z,81.31
2022-11-27T20:35:41.939Z,81.26
2022-11-27T20:40:49.297Z,81.30
2022-11-27T20:45:47.661Z,81.98
2022-11-27T20:50:51.367Z,82.23
2022-11-27T20:55:49.920Z,82.02
2022-11-27T21:00:50.402Z,81.93
2022-11-27T21:05:52.232Z,81.76
2022-11-27T21:11:00.059Z,81.56
2022-11-27T21:15:58.449Z,81.59
2022-11-27T21:20:57.847Z,81.42
2022-11-27T21:25:55.726Z,81.29
2022-11-27T21:30:55.641Z,81.10
2022-11-27T21:35:57.162Z,80.85
2022-11-27T21:40:58.738Z,80.32
2022-11-27T21:45:56.698Z,80.28
2022-11-27T21:51:02.944Z,80.00
2022-11-27T21:56:04.702Z,79.76
2022-11-27T22:01:02.965Z,79.67
2022-11-27T22:06:07.205Z,79.81
2022-11-27T22:11:07.152Z,79.64
2022-11-27T22:16:09.619Z,79.89
2022-11-27T22:21:12.013Z,79.93
2022-11-27T22:26:11.784Z,80.10
2022-11-27T22:31:10.921Z,80.21
2022-11-27T22:36:16.355Z,80.40
2022-11-27T22:41:15.124Z,79.87
2022-11-27T22:46:14.958Z,80.19
2022-11-27T22:51:15.296Z,79.93
2022-11-27T22:56:13.508Z,80.08
2022-11-27T23:01:15.745Z,80.27
2022-11-27T23:06:16.379Z,80.92
2022-11-27T23:11:16.212Z,80.98
2022-11-27T23:16:15.314Z,81.27
2022-11-27T23:21:18.508Z,81.37
2022-11-27T23:26:19.439Z,81.70
2022-11-27T23:31:32.035Z,82.06
2022-11-27T23:36:32.707Z,81.93
2022-11-27T23:41:30.594Z,82.17
2022-11-27T23:46:29.339Z,82.15
2022-11-27T23:51:31.317Z,82.07
2022-11-27T23:56:31.434Z,82.83
